FNUE

Luena Airport

Luena, Angola
METAR FNUE 211500Z 12006KT 9999 FEW030 25/11 Q1022
Observed Flight Rules
Jun-21 @ 15:00 UTC (9 hours ago) Visual Flight Rules
Wind Visibility Clouds
120° at 6 knots 10,000+ meters
  • Few at 3,000' AGL
Temperatures Readings
Current 25°C / 77°F
Dewpoint 11°C / 52°F
Humidity 42%
Altimeter 30.18" Hg
Pressure 1022 hPa
Elevation 1329
METAR FNUE 211500Z 12006KT 9999 FEW030 25/11 Q1022
Observed Flight Rules
Jun-21 @ 15:00 UTC
(9 hours ago)
VFR
Wind Visibility
120° at 6 knots 10,000+ meters
Clouds
  • Few at 3,000' AGL
Temperature Dewpoint
25°C / 77°F 11°C / 52°F
Humidity Altimeter Pressure
42% 30.18" Hg 1022 hPa